createdAt,value
2019-05-25T00:00:14.685Z,42.78
2019-05-25T00:01:14.706Z,41.97
2019-05-25T00:02:14.625Z,42.58
2019-05-25T00:03:14.559Z,42.98
2019-05-25T00:04:14.542Z,42.19
2019-05-25T00:05:14.535Z,41.99
2019-05-25T00:06:14.582Z,41.59
2019-05-25T00:07:14.546Z,42.70
2019-05-25T00:08:14.492Z,41.69
2019-05-25T00:09:14.485Z,42.10
2019-05-25T00:10:14.472Z,40.78
2019-05-25T00:11:14.464Z,41.29
2019-05-25T00:12:14.488Z,40.28
2019-05-25T00:13:14.805Z,40.28
2019-05-25T00:14:14.434Z,41.89
2019-05-25T00:15:14.421Z,41.59
2019-05-25T00:16:14.406Z,40.28
2019-05-25T00:17:14.427Z,41.69
2019-05-25T00:18:14.401Z,41.69
2019-05-25T00:19:14.415Z,40.91
2019-05-25T00:20:14.363Z,41.81
2019-05-25T00:21:14.408Z,41.81
2019-05-25T00:22:14.438Z,42.52
2019-05-25T00:23:14.372Z,42.33
2019-05-25T00:24:14.338Z,42.32
2019-05-25T00:25:14.316Z,43.24
2019-05-25T00:26:14.353Z,43.24
2019-05-25T00:27:14.399Z,43.65
2019-05-25T00:28:14.276Z,43.34
2019-05-25T00:29:14.273Z,43.24
2019-05-25T00:30:14.255Z,43.54
2019-05-25T00:31:14.334Z,43.65
2019-05-25T00:32:14.272Z,43.34
2019-05-25T00:33:14.228Z,43.85
2019-05-25T00:34:15.288Z,43.85
2019-05-25T00:35:14.204Z,43.54
2019-05-25T00:36:14.220Z,43.24
2019-05-25T00:37:14.206Z,44.25
2019-05-25T00:38:14.240Z,43.65
2019-05-25T00:39:14.251Z,43.95
2019-05-25T00:40:14.186Z,44.05
2019-05-25T00:41:14.188Z,44.95
2019-05-25T00:42:14.199Z,44.15
2019-05-25T00:43:14.145Z,44.05
2019-05-25T00:44:14.109Z,44.78
2019-05-25T00:45:14.097Z,44.95
2019-05-25T00:46:14.083Z,45.26
2019-05-25T00:47:14.117Z,44.27
2019-05-25T00:48:14.061Z,45.28
2019-05-25T00:49:14.081Z,45.16
2019-05-25T00:50:14.041Z,44.67
2019-05-25T00:51:14.034Z,45.18
2019-05-25T00:52:14.396Z,45.78
2019-05-25T00:53:14.009Z,46.29
2019-05-25T00:54:27.113Z,45.48
2019-05-25T00:55:15.090Z,45.48
2019-05-25T00:56:13.978Z,44.98
2019-05-25T00:57:14.003Z,45.07
2019-05-25T00:58:13.957Z,46.59
2019-05-25T00:59:13.942Z,45.78
2019-05-25T01:00:13.937Z,45.07
2019-05-25T01:01:13.946Z,46.09
2019-05-25T01:02:13.939Z,45.89
2019-05-25T01:03:13.919Z,46.29
2019-05-25T01:04:13.888Z,45.98
2019-05-25T01:05:13.881Z,46.09
2019-05-25T01:06:13.863Z,46.69
2019-05-25T01:07:13.915Z,46.59
2019-05-25T01:08:13.850Z,46.79
2019-05-25T01:09:13.831Z,46.89
2019-05-25T01:10:13.875Z,46.89
2019-05-25T01:11:13.821Z,46.01
2019-05-25T01:12:13.795Z,46.39
2019-05-25T01:13:13.882Z,46.41
2019-05-25T01:14:13.777Z,46.51
2019-05-25T01:15:13.772Z,46.01
2019-05-25T01:16:13.791Z,45.70
2019-05-25T01:17:13.748Z,46.41
2019-05-25T01:18:13.761Z,46.81
2019-05-25T01:19:13.728Z,46.81
2019-05-25T01:20:13.788Z,47.24
2019-05-25T01:21:13.706Z,46.94
2019-05-25T01:22:13.706Z,47.24
2019-05-25T01:23:13.735Z,47.64
2019-05-25T01:24:13.749Z,47.64
2019-05-25T01:25:13.730Z,47.85
2019-05-25T01:26:13.730Z,47.74
2019-05-25T01:27:13.660Z,47.74
2019-05-25T01:28:13.712Z,47.74
2019-05-25T01:29:13.635Z,47.64
2019-05-25T01:30:13.633Z,48.35
2019-05-25T01:31:13.607Z,47.44
2019-05-25T01:32:13.623Z,48.65
2019-05-25T01:33:13.600Z,48.25
2019-05-25T01:34:13.597Z,48.65
2019-05-25T01:35:13.555Z,48.45
2019-05-25T01:36:13.547Z,48.88
2019-05-25T01:37:13.539Z,49.28
2019-05-25T01:38:13.593Z,49.08
2019-05-25T01:39:13.540Z,49.08
2019-05-25T01:40:13.504Z,49.58
2019-05-25T01:41:13.494Z,49.58
2019-05-25T01:42:13.487Z,49.38
2019-05-25T01:43:13.497Z,49.48
2019-05-25T01:44:13.457Z,49.69
2019-05-25T01:45:13.448Z,50.29
2019-05-25T01:46:13.435Z,50.09
2019-05-25T01:47:13.441Z,50.19
2019-05-25T01:48:13.457Z,50.09
2019-05-25T01:49:13.409Z,50.09
2019-05-25T01:50:13.398Z,50.62
2019-05-25T01:51:13.386Z,50.82
2019-05-25T01:52:13.374Z,50.82
2019-05-25T01:53:13.398Z,50.72
2019-05-25T01:54:13.361Z,51.23
2019-05-25T01:55:13.357Z,50.62
2019-05-25T01:56:13.327Z,51.32
2019-05-25T01:57:13.341Z,51.23
2019-05-25T01:58:13.347Z,51.53
2019-05-25T01:59:13.297Z,51.32
2019-05-25T02:00:13.297Z,51.32
2019-05-25T02:01:13.299Z,51.32
2019-05-25T02:02:13.280Z,51.43
2019-05-25T02:03:13.283Z,52.16
2019-05-25T02:04:13.250Z,52.16
2019-05-25T02:05:13.234Z,52.06
2019-05-25T02:06:13.223Z,52.46
2019-05-25T02:07:13.215Z,52.76
2019-05-25T02:08:13.245Z,52.36
2019-05-25T02:09:13.199Z,52.87
2019-05-25T02:10:13.219Z,52.67
2019-05-25T02:11:13.182Z,52.87
2019-05-25T02:12:13.164Z,53.27
2019-05-25T02:13:13.189Z,52.87
2019-05-25T02:14:13.154Z,53.27
2019-05-25T02:15:13.136Z,52.67
2019-05-25T02:16:13.140Z,53.17
2019-05-25T02:17:13.107Z,53.09
2019-05-25T02:18:13.130Z,53.40
2019-05-25T02:19:13.123Z,53.80
2019-05-25T02:20:13.078Z,53.30
2019-05-25T02:21:13.075Z,53.80
2019-05-25T02:22:13.061Z,53.80
2019-05-25T02:23:13.085Z,53.90
2019-05-25T02:24:13.030Z,53.60
2019-05-25T02:25:18.332Z,53.90
2019-05-25T02:26:14.013Z,53.50
2019-05-25T02:27:12.999Z,54.61
2019-05-25T02:28:12.986Z,54.31
2019-05-25T02:29:13.010Z,54.84
2019-05-25T02:30:12.970Z,54.64
2019-05-25T02:31:12.954Z,54.94
2019-05-25T02:32:12.946Z,54.94
2019-05-25T02:33:12.952Z,55.35
2019-05-25T02:34:12.963Z,55.65
2019-05-25T02:35:12.914Z,55.65
2019-05-25T02:36:12.905Z,55.75
2019-05-25T02:37:12.889Z,55.68
2019-05-25T02:38:12.879Z,55.77
2019-05-25T02:39:12.902Z,55.88
2019-05-25T02:40:12.863Z,55.98
2019-05-25T02:41:12.853Z,55.88
2019-05-25T02:42:12.835Z,55.37
2019-05-25T02:43:12.829Z,56.18
2019-05-25T02:44:12.874Z,55.98
2019-05-25T02:45:12.812Z,56.28
2019-05-25T02:46:12.798Z,56.59
2019-05-25T02:47:12.787Z,56.79
2019-05-25T02:48:12.773Z,57.40
2019-05-25T02:49:12.800Z,57.02
2019-05-25T02:50:12.749Z,56.41
2019-05-25T02:51:12.740Z,56.71
2019-05-25T02:52:12.734Z,57.32
2019-05-25T02:53:12.724Z,56.71
2019-05-25T02:54:12.741Z,57.22
2019-05-25T02:55:12.700Z,57.62
2019-05-25T02:56:12.686Z,57.62
2019-05-25T02:57:12.675Z,57.83
2019-05-25T02:58:12.673Z,57.53
2019-05-25T02:59:12.693Z,58.03
2019-05-25T03:00:12.645Z,58.34
2019-05-25T03:01:12.640Z,58.74
2019-05-25T03:02:12.623Z,58.74
2019-05-25T03:03:12.625Z,59.05
2019-05-25T03:04:12.639Z,59.14
2019-05-25T03:05:12.601Z,59.05
2019-05-25T03:06:12.641Z,58.84
2019-05-25T03:07:12.573Z,58.84
2019-05-25T03:08:12.560Z,58.94
2019-05-25T03:09:12.581Z,59.14
2019-05-25T03:10:12.537Z,58.44
2019-05-25T03:11:12.529Z,59.05
2019-05-25T03:12:12.521Z,59.05
2019-05-25T03:13:12.509Z,58.74
2019-05-25T03:14:12.529Z,58.94
2019-05-25T03:15:12.483Z,58.94
2019-05-25T03:16:12.477Z,58.94
2019-05-25T03:17:12.468Z,58.74
2019-05-25T03:18:12.456Z,59.34
2019-05-25T03:19:12.486Z,59.25
2019-05-25T03:20:12.435Z,59.25
2019-05-25T03:21:12.421Z,59.25
2019-05-25T03:22:12.408Z,59.34
2019-05-25T03:23:12.403Z,59.45
2019-05-25T03:24:12.416Z,59.65
2019-05-25T03:25:12.386Z,59.65
2019-05-25T03:26:12.369Z,59.34
2019-05-25T03:27:12.361Z,59.65
2019-05-25T03:28:12.343Z,59.85
2019-05-25T03:29:12.368Z,59.75
2019-05-25T03:30:12.328Z,59.95
2019-05-25T03:31:12.315Z,60.06
2019-05-25T03:32:12.304Z,60.16
2019-05-25T03:33:12.292Z,60.06
2019-05-25T03:34:12.347Z,60.06
2019-05-25T03:35:12.273Z,60.28
2019-05-25T03:36:12.270Z,60.06
2019-05-25T03:37:12.258Z,60.08
2019-05-25T03:38:12.260Z,60.08
2019-05-25T03:39:12.260Z,60.19
2019-05-25T03:40:12.219Z,60.19
2019-05-25T03:41:12.206Z,60.59
2019-05-25T03:42:12.197Z,60.59
2019-05-25T03:43:12.190Z,60.39
2019-05-25T03:44:12.172Z,60.59
2019-05-25T03:45:12.194Z,60.89
2019-05-25T03:46:12.154Z,60.89
2019-05-25T03:47:12.142Z,61.10
2019-05-25T03:48:12.131Z,61.02
2019-05-25T03:49:12.121Z,61.94
2019-05-25T03:50:12.143Z,61.43
2019-05-25T03:51:12.115Z,61.30
2019-05-25T03:52:12.088Z,61.43
2019-05-25T03:53:12.115Z,61.63
2019-05-25T03:54:12.069Z,61.33
2019-05-25T03:55:12.055Z,61.63
2019-05-25T03:56:12.046Z,61.83
2019-05-25T03:57:12.030Z,62.54
2019-05-25T03:58:12.020Z,62.45
2019-05-25T03:59:12.041Z,62.14
2019-05-25T04:00:12.014Z,63.26
2019-05-25T04:01:12.043Z,64.58
2019-05-25T04:02:11.979Z,64.88
2019-05-25T04:03:11.970Z,63.76
2019-05-25T04:04:11.960Z,62.92
2019-05-25T04:05:11.953Z,63.53
2019-05-25T04:06:11.939Z,63.23
2019-05-25T04:07:11.952Z,63.02
2019-05-25T04:08:11.916Z,63.12
2019-05-25T04:09:11.902Z,62.59
2019-05-25T04:10:11.888Z,62.69
2019-05-25T04:11:11.879Z,62.38
2019-05-25T04:12:11.913Z,62.29
2019-05-25T04:13:11.864Z,62.08
2019-05-25T04:14:11.853Z,61.27
2019-05-25T04:15:11.844Z,61.47
2019-05-25T04:16:11.827Z,61.88
2019-05-25T04:17:11.852Z,61.98
2019-05-25T04:18:11.812Z,61.98
2019-05-25T04:19:11.801Z,62.18
2019-05-25T04:20:11.819Z,61.68
2019-05-25T04:21:11.774Z,61.17
2019-05-25T04:22:11.761Z,61.07
2019-05-25T04:23:11.751Z,61.07
2019-05-25T04:24:11.751Z,60.66
2019-05-25T04:25:11.767Z,61.07
2019-05-25T04:26:22.232Z,61.07
2019-05-25T04:27:12.717Z,60.86
2019-05-25T04:28:11.702Z,60.97
2019-05-25T04:29:11.717Z,60.57
2019-05-25T04:30:11.675Z,60.66
2019-05-25T04:31:11.665Z,60.97
2019-05-25T04:32:11.661Z,60.46
2019-05-25T04:33:11.661Z,60.97
2019-05-25T04:34:11.669Z,61.07
2019-05-25T04:35:11.619Z,60.86
2019-05-25T04:36:11.620Z,61.27
2019-05-25T04:37:11.610Z,61.27
2019-05-25T04:38:11.595Z,61.17
2019-05-25T04:39:11.582Z,60.26
2019-05-25T04:40:11.607Z,60.26
2019-05-25T04:41:11.559Z,60.86
2019-05-25T04:42:11.548Z,60.66
2019-05-25T04:43:11.563Z,60.86
2019-05-25T04:44:11.535Z,60.86
2019-05-25T04:45:11.571Z,60.97
2019-05-25T04:46:11.512Z,61.07
2019-05-25T04:47:26.125Z,60.77
2019-05-25T04:48:12.481Z,60.26
2019-05-25T04:49:11.471Z,61.47
2019-05-25T04:50:11.496Z,61.47
2019-05-25T04:51:11.512Z,60.97
2019-05-25T04:52:11.441Z,61.17
2019-05-25T04:53:11.436Z,61.17
2019-05-25T04:54:11.419Z,61.17
2019-05-25T04:55:11.437Z,61.07
2019-05-25T04:56:11.404Z,61.17
2019-05-25T04:57:11.399Z,61.78
2019-05-25T04:58:11.383Z,61.17
2019-05-25T04:59:11.380Z,60.06
2019-05-25T05:00:11.354Z,61.07
2019-05-25T05:01:11.397Z,59.85
2019-05-25T05:02:11.336Z,61.07
2019-05-25T05:03:11.339Z,61.98
2019-05-25T05:04:11.318Z,61.78
2019-05-25T05:05:11.346Z,60.26
2019-05-25T05:06:11.291Z,60.77
2019-05-25T05:07:11.292Z,61.68
2019-05-25T05:08:11.277Z,61.17
2019-05-25T05:09:11.284Z,61.47
2019-05-25T05:10:11.308Z,61.37
2019-05-25T05:11:11.411Z,61.07
2019-05-25T05:12:11.227Z,61.07
2019-05-25T05:13:11.766Z,60.66
2019-05-25T05:14:11.207Z,60.66
2019-05-25T05:15:11.264Z,60.86
2019-05-25T05:16:11.197Z,61.07
2019-05-25T05:17:11.178Z,61.17
2019-05-25T05:18:11.280Z,60.77
2019-05-25T05:19:11.357Z,60.97
2019-05-25T05:20:11.182Z,60.36
2019-05-25T05:21:11.245Z,60.36
2019-05-25T05:22:11.128Z,60.26
2019-05-25T05:23:11.118Z,60.97
2019-05-25T05:24:11.099Z,60.66
2019-05-25T05:25:11.983Z,60.33
2019-05-25T05:26:11.117Z,60.33
2019-05-25T05:27:11.067Z,60.33
2019-05-25T05:28:11.064Z,60.23
2019-05-25T05:29:11.050Z,59.72
2019-05-25T05:30:11.148Z,60.26
2019-05-25T05:31:23.111Z,60.26
2019-05-25T05:32:26.373Z,60.36
2019-05-25T05:33:12.012Z,60.13
2019-05-25T05:34:11.027Z,60.13
2019-05-25T05:35:10.987Z,60.46
2019-05-25T05:36:11.010Z,59.83
2019-05-25T05:37:11.002Z,60.33
2019-05-25T05:38:10.958Z,59.92
2019-05-25T05:39:10.939Z,60.33
2019-05-25T05:40:10.941Z,60.13
2019-05-25T05:41:10.936Z,59.92
2019-05-25T05:42:10.967Z,59.72
2019-05-25T05:43:10.952Z,60.13
2019-05-25T05:44:10.940Z,59.83
2019-05-25T05:45:10.923Z,60.03
2019-05-25T05:46:10.895Z,60.13
2019-05-25T05:47:10.874Z,59.92
2019-05-25T05:48:10.915Z,59.92
2019-05-25T05:49:10.890Z,59.72
2019-05-25T05:50:10.860Z,59.83
2019-05-25T05:51:10.821Z,59.92
2019-05-25T05:52:10.799Z,59.83
2019-05-25T05:53:10.789Z,60.03
2019-05-25T05:54:10.817Z,59.70
2019-05-25T05:55:10.813Z,59.49
2019-05-25T05:56:10.757Z,59.39
2019-05-25T05:57:12.706Z,59.09
2019-05-25T05:58:10.736Z,59.16
2019-05-25T05:59:10.761Z,58.96
2019-05-25T06:00:10.726Z,59.06
2019-05-25T06:01:10.718Z,58.86
2019-05-25T06:02:10.704Z,58.86
2019-05-25T06:03:10.690Z,58.83
2019-05-25T06:04:10.674Z,58.56
2019-05-25T06:05:10.699Z,58.25
2019-05-25T06:06:10.653Z,57.85
2019-05-25T06:07:10.654Z,58.45
2019-05-25T06:08:10.645Z,58.45
2019-05-25T06:09:10.693Z,58.45
2019-05-25T06:10:10.678Z,58.25
2019-05-25T06:11:10.660Z,57.62
2019-05-25T06:12:10.634Z,57.21
2019-05-25T06:13:10.612Z,57.82
2019-05-25T06:14:10.600Z,56.40
2019-05-25T06:15:10.748Z,56.30
2019-05-25T06:16:10.564Z,57.21
2019-05-25T06:17:10.541Z,57.11
2019-05-25T06:18:10.524Z,56.30
2019-05-25T06:19:10.513Z,56.00
2019-05-25T06:20:10.538Z,56.10
2019-05-25T06:21:10.536Z,55.49
2019-05-25T06:22:10.490Z,56.00
2019-05-25T06:23:12.567Z,55.67
2019-05-25T06:24:10.463Z,55.87
2019-05-25T06:25:10.489Z,57.29
2019-05-25T06:26:10.540Z,56.38
2019-05-25T06:27:10.458Z,57.09
2019-05-25T06:28:10.534Z,55.98
2019-05-25T06:29:10.513Z,55.77
2019-05-25T06:30:10.592Z,55.36
2019-05-25T06:31:10.610Z,55.87
2019-05-25T06:32:10.386Z,55.77
2019-05-25T06:33:10.482Z,55.87
2019-05-25T06:34:10.509Z,55.77
2019-05-25T06:35:10.358Z,55.36
2019-05-25T06:36:10.366Z,55.36
2019-05-25T06:37:10.497Z,55.80
2019-05-25T06:38:10.451Z,56.30
2019-05-25T06:39:10.315Z,56.40
2019-05-25T06:40:10.407Z,56.20
2019-05-25T06:41:10.453Z,56.27
2019-05-25T06:42:10.270Z,55.98
2019-05-25T06:43:10.264Z,56.68
2019-05-25T06:44:10.250Z,55.65
2019-05-25T06:45:10.327Z,55.32
2019-05-25T06:46:10.342Z,55.41
2019-05-25T06:47:10.219Z,55.09
2019-05-25T06:48:10.295Z,55.19
2019-05-25T06:49:10.304Z,55.09
2019-05-25T06:50:10.237Z,54.66
2019-05-25T06:51:10.287Z,54.48
2019-05-25T06:52:10.416Z,54.16
2019-05-25T06:53:10.184Z,53.55
2019-05-25T06:54:10.191Z,53.12
2019-05-25T06:55:10.182Z,53.32
2019-05-25T06:56:10.270Z,52.89
2019-05-25T06:57:10.140Z,52.57
2019-05-25T06:58:10.104Z,52.37
2019-05-25T06:59:10.090Z,52.47
2019-05-25T07:00:10.253Z,52.14
2019-05-25T07:01:10.063Z,52.34
2019-05-25T07:02:10.138Z,52.44
2019-05-25T07:03:10.060Z,51.23
2019-05-25T07:04:10.130Z,51.54
2019-05-25T07:05:10.131Z,51.28
2019-05-25T07:06:10.171Z,52.19
2019-05-25T07:07:10.137Z,53.40
2019-05-25T07:08:10.144Z,53.80
2019-05-25T07:09:10.011Z,53.17
2019-05-25T07:10:10.012Z,52.26
2019-05-25T07:11:09.963Z,52.64
2019-05-25T07:12:10.084Z,52.04
2019-05-25T07:13:09.945Z,52.04
2019-05-25T07:14:09.957Z,51.73
2019-05-25T07:15:09.922Z,51.34
2019-05-25T07:16:09.912Z,51.23
2019-05-25T07:17:09.978Z,50.93
2019-05-25T07:18:09.953Z,52.22
2019-05-25T07:19:10.004Z,51.29
2019-05-25T07:20:10.017Z,50.76
2019-05-25T07:21:10.004Z,50.58
2019-05-25T07:22:10.095Z,50.08
2019-05-25T07:23:09.943Z,50.78
2019-05-25T07:24:09.984Z,51.29
2019-05-25T07:25:10.021Z,52.51
2019-05-25T07:26:09.931Z,51.91
2019-05-25T07:27:09.947Z,52.04
2019-05-25T07:28:09.897Z,51.43
2019-05-25T07:29:09.901Z,50.96
2019-05-25T07:30:09.975Z,52.87
2019-05-25T07:31:09.850Z,52.74
2019-05-25T07:32:09.819Z,51.93
2019-05-25T07:33:09.737Z,52.04
2019-05-25T07:34:09.812Z,52.37
2019-05-25T07:35:09.776Z,52.34
2019-05-25T07:36:09.778Z,52.24
2019-05-25T07:37:09.711Z,53.34
2019-05-25T07:38:09.672Z,52.87
2019-05-25T07:39:09.893Z,52.87
2019-05-25T07:40:09.712Z,52.17
2019-05-25T07:41:09.748Z,51.89
2019-05-25T07:42:09.814Z,52.59
2019-05-25T07:43:10.062Z,53.09
2019-05-25T07:44:09.799Z,53.50
2019-05-25T07:45:09.757Z,53.50
2019-05-25T07:46:09.947Z,54.30
2019-05-25T07:47:09.815Z,53.50
2019-05-25T07:48:09.696Z,54.61
2019-05-25T07:49:09.698Z,53.80
2019-05-25T07:50:09.777Z,54.30
2019-05-25T07:51:10.007Z,54.88
2019-05-25T07:52:09.716Z,54.99
2019-05-25T07:53:09.581Z,54.91
2019-05-25T07:54:09.622Z,53.47
2019-05-25T07:55:09.491Z,52.26
2019-05-25T07:56:10.525Z,54.68
2019-05-25T07:57:09.605Z,55.41
2019-05-25T07:58:17.467Z,55.01
2019-05-25T07:59:10.625Z,54.71
2019-05-25T08:00:09.530Z,53.40
2019-05-25T08:01:09.603Z,54.50
2019-05-25T08:02:09.981Z,54.63
2019-05-25T08:03:09.486Z,55.14
2019-05-25T08:04:09.409Z,54.83
2019-05-25T08:05:09.465Z,55.04
2019-05-25T08:06:09.522Z,53.52
2019-05-25T08:07:09.776Z,55.66
2019-05-25T08:08:09.580Z,55.54
2019-05-25T08:09:09.496Z,55.66
2019-05-25T08:10:09.376Z,55.26
2019-05-25T08:11:09.590Z,55.57
2019-05-25T08:12:09.655Z,56.57
2019-05-25T08:13:09.375Z,55.57
2019-05-25T08:14:09.283Z,55.46
2019-05-25T08:15:09.487Z,55.97
2019-05-25T08:16:09.317Z,55.66
2019-05-25T08:17:09.390Z,55.36
2019-05-25T08:18:09.571Z,55.06
2019-05-25T08:19:09.473Z,54.76
2019-05-25T08:20:09.322Z,55.77
2019-05-25T08:21:09.588Z,55.57
2019-05-25T08:22:09.306Z,56.20
2019-05-25T08:23:09.628Z,55.97
2019-05-25T08:24:09.275Z,55.64
2019-05-25T08:25:09.340Z,54.94
2019-05-25T08:26:09.314Z,55.04
2019-05-25T08:27:09.150Z,56.15
2019-05-25T08:28:09.359Z,56.15
2019-05-25T08:29:09.565Z,54.94
2019-05-25T08:30:09.158Z,55.66
2019-05-25T08:31:09.464Z,55.97
2019-05-25T08:32:09.280Z,55.54
2019-05-25T08:33:09.256Z,55.46
2019-05-25T08:34:09.434Z,55.57
2019-05-25T08:35:09.298Z,55.57
2019-05-25T08:36:09.181Z,55.46
2019-05-25T08:37:09.136Z,55.97
2019-05-25T08:38:09.857Z,56.37
2019-05-25T08:39:09.293Z,57.28
2019-05-25T08:40:09.072Z,55.57
2019-05-25T08:41:09.002Z,55.97
2019-05-25T08:42:09.194Z,55.99
2019-05-25T08:43:09.096Z,57.74
2019-05-25T08:44:08.999Z,56.63
2019-05-25T08:45:08.952Z,56.93
2019-05-25T08:46:08.940Z,57.34
2019-05-25T08:47:08.955Z,57.54
2019-05-25T08:48:08.924Z,57.94
2019-05-25T08:49:08.911Z,58.25
2019-05-25T08:50:08.934Z,58.14
2019-05-25T08:51:08.889Z,57.41
2019-05-25T08:52:08.880Z,57.21
2019-05-25T08:53:08.877Z,56.70
2019-05-25T08:54:08.856Z,57.71
2019-05-25T08:55:08.866Z,57.81
2019-05-25T08:56:08.855Z,57.18
2019-05-25T08:57:08.818Z,57.71
2019-05-25T08:58:08.819Z,57.01
2019-05-25T08:59:08.803Z,58.22
2019-05-25T09:00:08.826Z,56.37
2019-05-25T09:01:08.786Z,55.29
2019-05-25T09:02:08.768Z,57.10
2019-05-25T09:03:08.761Z,56.57
2019-05-25T09:04:08.752Z,56.40
2019-05-25T09:05:09.095Z,56.77
2019-05-25T09:06:08.866Z,57.25
2019-05-25T09:07:08.826Z,55.77
2019-05-25T09:08:08.784Z,56.45
2019-05-25T09:09:08.768Z,55.31
2019-05-25T09:10:08.684Z,54.10
2019-05-25T09:11:08.710Z,53.88
2019-05-25T09:12:08.705Z,53.45
2019-05-25T09:13:08.649Z,51.93
2019-05-25T09:14:08.639Z,52.06
2019-05-25T09:15:08.643Z,52.09
2019-05-25T09:16:08.680Z,52.22
2019-05-25T09:17:08.614Z,53.65
2019-05-25T09:18:08.623Z,54.46
2019-05-25T09:19:08.582Z,54.66
2019-05-25T09:20:08.576Z,54.58
2019-05-25T09:21:08.611Z,54.96
2019-05-25T09:22:08.554Z,54.89
2019-05-25T09:23:08.560Z,55.19
2019-05-25T09:24:08.558Z,55.19
2019-05-25T09:25:08.531Z,55.69
2019-05-25T09:26:08.521Z,54.68
2019-05-25T09:27:08.547Z,55.39
2019-05-25T09:28:08.492Z,55.59
2019-05-25T09:29:08.493Z,55.82
2019-05-25T09:30:08.465Z,55.21
2019-05-25T09:31:08.463Z,55.62
2019-05-25T09:32:08.483Z,56.12
2019-05-25T09:33:08.440Z,56.32
2019-05-25T09:34:08.438Z,56.56
2019-05-25T09:35:08.431Z,55.32
2019-05-25T09:36:08.400Z,56.83
2019-05-25T09:37:08.423Z,55.90
2019-05-25T09:38:08.382Z,55.82
2019-05-25T09:39:08.379Z,55.62
2019-05-25T09:40:08.375Z,55.72
2019-05-25T09:41:08.345Z,55.62
2019-05-25T09:42:08.363Z,55.39
2019-05-25T09:43:08.360Z,55.36
2019-05-25T09:44:08.318Z,54.56
2019-05-25T09:45:08.315Z,54.36
2019-05-25T09:46:08.300Z,53.42
2019-05-25T09:47:08.301Z,53.34
2019-05-25T09:48:08.296Z,52.74
2019-05-25T09:49:08.263Z,52.64
2019-05-25T09:50:08.250Z,53.27
2019-05-25T09:51:15.544Z,53.67
2019-05-25T09:52:09.231Z,54.38
2019-05-25T09:53:08.266Z,54.28
2019-05-25T09:54:08.211Z,54.99
2019-05-25T09:55:08.197Z,54.99
2019-05-25T09:56:08.193Z,55.39
2019-05-25T09:57:08.177Z,55.06
2019-05-25T09:58:08.170Z,54.79
2019-05-25T09:59:19.735Z,54.68
2019-05-25T10:00:09.153Z,55.09
2019-05-25T10:01:08.132Z,55.16
2019-05-25T10:02:08.172Z,55.66
2019-05-25T10:03:08.143Z,55.44
2019-05-25T10:04:08.324Z,54.71
2019-05-25T10:05:08.096Z,54.48
2019-05-25T10:06:11.761Z,54.58
2019-05-25T10:07:09.077Z,54.46
2019-05-25T10:08:08.077Z,54.46
2019-05-25T10:09:08.836Z,53.34
2019-05-25T10:10:08.115Z,53.52
2019-05-25T10:11:08.035Z,53.52
2019-05-25T10:12:08.054Z,52.51
2019-05-25T10:13:08.003Z,51.01
2019-05-25T10:14:08.003Z,52.09
2019-05-25T10:15:08.016Z,52.42
2019-05-25T10:16:07.996Z,52.09
2019-05-25T10:17:07.972Z,51.61
2019-05-25T10:18:07.966Z,51.01
2019-05-25T10:19:07.984Z,51.49
2019-05-25T10:20:07.965Z,49.18
2019-05-25T10:21:07.921Z,49.27
2019-05-25T10:22:07.910Z,50.35
2019-05-25T10:23:07.896Z,48.85
2019-05-25T10:24:07.929Z,49.05
2019-05-25T10:25:07.919Z,48.87
2019-05-25T10:26:07.866Z,49.48
2019-05-25T10:27:07.863Z,49.57
2019-05-25T10:28:07.850Z,48.14
2019-05-25T10:29:07.836Z,49.57
2019-05-25T10:30:07.827Z,48.47
2019-05-25T10:31:07.852Z,48.57
2019-05-25T10:32:07.804Z,49.10
2019-05-25T10:33:07.794Z,49.82
2019-05-25T10:34:07.778Z,50.10
2019-05-25T10:35:07.772Z,49.80
2019-05-25T10:36:07.788Z,49.82
2019-05-25T10:37:07.756Z,50.76
2019-05-25T10:38:07.765Z,51.38
2019-05-25T10:39:07.728Z,50.88
2019-05-25T10:40:07.717Z,51.28
2019-05-25T10:41:07.742Z,51.71
2019-05-25T10:42:07.698Z,51.91
2019-05-25T10:43:07.689Z,52.72
2019-05-25T10:44:07.673Z,52.72
2019-05-25T10:45:07.665Z,52.92
2019-05-25T10:46:07.648Z,52.62
2019-05-25T10:47:07.674Z,53.25
2019-05-25T10:48:07.686Z,53.12
2019-05-25T10:49:07.715Z,52.82
2019-05-25T10:50:07.610Z,52.31
2019-05-25T10:51:07.658Z,52.42
2019-05-25T10:52:07.586Z,53.63
2019-05-25T10:53:07.607Z,53.90
2019-05-25T10:54:07.561Z,53.50
2019-05-25T10:55:07.552Z,52.19
2019-05-25T10:56:07.548Z,52.89
2019-05-25T10:57:07.537Z,53.07
2019-05-25T10:58:07.558Z,52.64
2019-05-25T10:59:07.509Z,52.54
2019-05-25T11:00:07.507Z,51.71
2019-05-25T11:01:07.494Z,50.60
2019-05-25T11:02:07.502Z,50.38
2019-05-25T11:03:07.528Z,49.98
2019-05-25T11:04:07.460Z,49.98
2019-05-25T11:05:07.454Z,50.00
2019-05-25T11:06:07.499Z,50.58
2019-05-25T11:07:07.440Z,51.29
2019-05-25T11:08:07.464Z,51.09
2019-05-25T11:09:07.409Z,50.38
2019-05-25T11:10:07.427Z,49.80
2019-05-25T11:11:07.395Z,49.80
2019-05-25T11:12:07.374Z,50.93
2019-05-25T11:13:07.485Z,50.53
2019-05-25T11:14:07.358Z,51.31
2019-05-25T11:15:07.401Z,51.54
2019-05-25T11:16:07.398Z,51.14
2019-05-25T11:17:07.324Z,51.51
2019-05-25T11:18:07.348Z,50.93
2019-05-25T11:19:07.328Z,51.56
2019-05-25T11:20:07.294Z,51.06
2019-05-25T11:21:07.284Z,52.06
2019-05-25T11:22:07.972Z,52.54
2019-05-25T11:23:07.261Z,51.93
2019-05-25T11:24:07.286Z,50.51
2019-05-25T11:25:07.232Z,49.80
2019-05-25T11:26:07.222Z,50.08
2019-05-25T11:27:07.211Z,50.78
2019-05-25T11:28:08.429Z,50.76
2019-05-25T11:29:07.220Z,50.63
2019-05-25T11:30:09.324Z,48.14
2019-05-25T11:31:07.171Z,48.99
2019-05-25T11:32:07.711Z,49.32
2019-05-25T11:33:07.150Z,50.15
2019-05-25T11:34:07.177Z,50.68
2019-05-25T11:35:07.135Z,51.18
2019-05-25T11:36:07.115Z,50.35
2019-05-25T11:37:07.102Z,51.18
2019-05-25T11:38:07.091Z,50.76
2019-05-25T11:39:07.114Z,51.36
2019-05-25T11:40:07.075Z,51.16
2019-05-25T11:41:07.066Z,50.83
2019-05-25T11:42:07.057Z,50.63
2019-05-25T11:43:07.045Z,49.93
2019-05-25T11:44:07.027Z,50.10
2019-05-25T11:45:07.053Z,50.73
2019-05-25T11:46:07.012Z,51.11
2019-05-25T11:47:07.204Z,50.53
2019-05-25T11:48:06.986Z,51.14
2019-05-25T11:49:21.723Z,51.61
2019-05-25T11:50:07.991Z,49.80
2019-05-25T11:51:06.964Z,49.80
2019-05-25T11:52:06.951Z,50.13
2019-05-25T11:53:06.975Z,50.96
2019-05-25T11:54:06.925Z,50.85
2019-05-25T11:55:06.922Z,51.79
2019-05-25T11:56:06.913Z,52.09
2019-05-25T11:57:06.926Z,52.09
2019-05-25T11:58:06.916Z,52.09
2019-05-25T11:59:06.868Z,51.89
2019-05-25T12:00:06.873Z,51.86
2019-05-25T12:01:06.854Z,51.18
2019-05-25T12:02:06.872Z,51.08
2019-05-25T12:03:06.872Z,51.18
2019-05-25T12:04:06.824Z,51.38
2019-05-25T12:05:06.813Z,51.18
2019-05-25T12:06:06.800Z,51.10
2019-05-25T12:07:06.790Z,51.08
2019-05-25T12:08:06.821Z,51.71
2019-05-25T12:09:06.761Z,52.01
2019-05-25T12:10:06.757Z,52.42
2019-05-25T12:11:06.743Z,52.29
2019-05-25T12:12:06.740Z,52.39
2019-05-25T12:13:06.761Z,51.48
2019-05-25T12:14:06.718Z,52.49
2019-05-25T12:15:06.706Z,52.51
2019-05-25T12:16:06.690Z,53.02
2019-05-25T12:17:06.678Z,53.63
2019-05-25T12:18:06.719Z,52.11
2019-05-25T12:19:06.663Z,52.22
2019-05-25T12:20:06.648Z,52.29
2019-05-25T12:21:06.637Z,53.50
2019-05-25T12:22:06.623Z,51.97
2019-05-25T12:23:06.755Z,52.06
2019-05-25T12:24:06.644Z,52.64
2019-05-25T12:25:06.596Z,51.23
2019-05-25T12:26:06.584Z,51.54
2019-05-25T12:27:06.579Z,51.01
2019-05-25T12:28:06.560Z,51.01
2019-05-25T12:29:06.586Z,53.12
2019-05-25T12:30:06.539Z,51.89
2019-05-25T12:31:06.529Z,49.37
2019-05-25T12:32:06.520Z,49.27
2019-05-25T12:33:06.547Z,49.18
2019-05-25T12:34:06.528Z,49.88
2019-05-25T12:35:06.484Z,49.57
2019-05-25T12:36:06.539Z,49.18
2019-05-25T12:37:06.478Z,50.48
2019-05-25T12:38:06.460Z,51.18
2019-05-25T12:39:06.489Z,50.96
2019-05-25T12:40:06.440Z,50.56
2019-05-25T12:41:06.419Z,50.76
2019-05-25T12:42:06.412Z,50.26
2019-05-25T12:43:06.442Z,50.26
2019-05-25T12:44:06.398Z,49.85
2019-05-25T12:45:06.386Z,49.76
2019-05-25T12:46:06.373Z,50.26
2019-05-25T12:47:06.365Z,49.45
2019-05-25T12:48:06.373Z,49.25
2019-05-25T12:49:06.358Z,49.85
2019-05-25T12:50:06.336Z,49.35
2019-05-25T12:51:06.332Z,49.45
2019-05-25T12:52:06.304Z,49.15